Cleveland, Ohio
Traffic Map
Current Weather Conditions
Cleveland, Ohio
Overcast
Overcast
30°
Feels Like: 17°
Wind Chill: 17° Ceiling: 6500
Heat Index: 30° Visibility: 10mi
Dew Point: 19° Wind: 21mph
Humidity: 64% Direction: 230° (SW)
Pressure: 29.94in Gusts: 30mph
Raw Report DataKBKL 160653Z AUTO 23018G26KT 10SM FEW050 BKN065 OVC100 M01/M07 A2994 RMK AO2 PK WND 22026/0649 SLP146 T10111072
Traffic Incident Summary
Active as of:
Severity:
Category:
InformationThere was an issue retrieving the traffic information for this location. Please try a different location or try again shortly.
Advertisements